SWA2915 KBNA-KTYS
Flight info
| Callsign | SWA2915 |
|---|---|
| Flight time | N/A |
| Altitude | 15000 |
| Route | TAZMO4 BURME DCT |
| Aircraft | B738/M-SDE2E3GIJ4RWZ/LB1D1 |
Departure
| Time | N/A |
|---|---|
| Airport | Nashville International Airport (KBNA) |
Arrival
| Time | 2026-05-06 21:03 |
|---|---|
| Airport | McGhee Tyson Airport (KTYS) |
| Time | Latitude | Longitude | Altitude | Speed | Heading |
|---|---|---|---|---|---|
| 2026-05-06 20:40 | 36.04857 | -85.75114 | 14945 ft | 422 kts | 98° |
| 2026-05-06 20:41 | 36.04608 | -85.71554 | 14935 ft | 422 kts | 98° |
| 2026-05-06 20:41 | 36.04357 | -85.67941 | 14940 ft | 422 kts | 98° |
| 2026-05-06 20:41 | 36.04106 | -85.64329 | 14932 ft | 422 kts | 97° |
| 2026-05-06 20:41 | 36.03853 | -85.60716 | 14938 ft | 422 kts | 97° |
| 2026-05-06 20:42 | 36.03599 | -85.57103 | 14928 ft | 422 kts | 97° |
| 2026-05-06 20:42 | 36.03344 | -85.53489 | 14933 ft | 422 kts | 97° |
| 2026-05-06 20:42 | 36.03088 | -85.49878 | 14934 ft | 422 kts | 97° |
| 2026-05-06 20:42 | 36.02830 | -85.46269 | 14926 ft | 422 kts | 97° |
| 2026-05-06 20:43 | 36.02571 | -85.42663 | 14936 ft | 421 kts | 97° |
| 2026-05-06 20:43 | 36.02312 | -85.39055 | 14939 ft | 422 kts | 97° |
| 2026-05-06 20:43 | 36.02051 | -85.35443 | 14932 ft | 422 kts | 97° |
| 2026-05-06 20:43 | 36.01789 | -85.31836 | 14941 ft | 422 kts | 97° |
| 2026-05-06 20:44 | 36.01525 | -85.28222 | 14942 ft | 423 kts | 97° |
| 2026-05-06 20:44 | 36.01260 | -85.24605 | 14933 ft | 423 kts | 97° |
| 2026-05-06 20:44 | 36.00995 | -85.20994 | 14927 ft | 422 kts | 97° |
| 2026-05-06 20:44 | 36.00728 | -85.17384 | 14932 ft | 421 kts | 97° |
| 2026-05-06 20:45 | 36.00462 | -85.13786 | 14924 ft | 421 kts | 97° |
| 2026-05-06 20:45 | 36.00196 | -85.10185 | 14929 ft | 421 kts | 97° |
| 2026-05-06 20:45 | 35.99927 | -85.06589 | 14940 ft | 420 kts | 97° |
| 2026-05-06 20:45 | 35.99690 | -85.03043 | 14922 ft | 408 kts | 95° |
| 2026-05-06 20:46 | 35.99554 | -84.99589 | 14920 ft | 398 kts | 94° |
| 2026-05-06 20:46 | 35.99463 | -84.96217 | 14877 ft | 388 kts | 93° |
| 2026-05-06 20:46 | 35.99384 | -84.92922 | 14855 ft | 380 kts | 93° |
| 2026-05-06 20:46 | 35.99302 | -84.89677 | 14656 ft | 376 kts | 94° |
| 2026-05-06 20:47 | 35.99217 | -84.86518 | 14414 ft | 371 kts | 94° |
| 2026-05-06 20:47 | 35.99123 | -84.83301 | 14091 ft | 370 kts | 94° |
| 2026-05-06 20:47 | 35.99027 | -84.80173 | 13783 ft | 369 kts | 94° |
| 2026-05-06 20:47 | 35.98925 | -84.76970 | 13402 ft | 369 kts | 94° |
| 2026-05-06 20:48 | 35.98822 | -84.73809 | 13047 ft | 368 kts | 94° |
| 2026-05-06 20:48 | 35.98718 | -84.70659 | 12665 ft | 367 kts | 94° |
| 2026-05-06 20:48 | 35.98617 | -84.67562 | 12322 ft | 365 kts | 94° |
| 2026-05-06 20:48 | 35.98513 | -84.64439 | 11989 ft | 363 kts | 94° |
| 2026-05-06 20:49 | 35.98409 | -84.61326 | 11616 ft | 362 kts | 94° |
| 2026-05-06 20:49 | 35.98304 | -84.58231 | 11269 ft | 360 kts | 94° |
| 2026-05-06 20:49 | 35.98198 | -84.55105 | 10935 ft | 358 kts | 94° |
| 2026-05-06 20:49 | 35.98094 | -84.52081 | 10590 ft | 358 kts | 94° |
| 2026-05-06 20:50 | 35.97988 | -84.49025 | 10313 ft | 354 kts | 94° |
| 2026-05-06 20:50 | 35.97884 | -84.46028 | 10170 ft | 345 kts | 94° |
| 2026-05-06 20:50 | 35.97781 | -84.43100 | 10025 ft | 338 kts | 94° |
| 2026-05-06 20:50 | 35.97680 | -84.40233 | 9863 ft | 331 kts | 94° |
| 2026-05-06 20:51 | 35.97581 | -84.37431 | 9620 ft | 327 kts | 94° |
| 2026-05-06 20:51 | 35.97480 | -84.34608 | 9252 ft | 328 kts | 94° |
| 2026-05-06 20:51 | 35.97378 | -84.31796 | 8944 ft | 327 kts | 94° |
| 2026-05-06 20:51 | 35.97277 | -84.28994 | 8659 ft | 327 kts | 94° |
| 2026-05-06 20:52 | 35.97174 | -84.26188 | 8325 ft | 326 kts | 94° |
| 2026-05-06 20:52 | 35.97073 | -84.23421 | 8020 ft | 319 kts | 95° |
| 2026-05-06 20:52 | 35.96973 | -84.20720 | 7720 ft | 312 kts | 94° |
| 2026-05-06 20:52 | 35.96875 | -84.18083 | 7444 ft | 303 kts | 94° |
| 2026-05-06 20:53 | 35.96779 | -84.15520 | 7352 ft | 291 kts | 94° |
| 2026-05-06 20:53 | 35.96689 | -84.13086 | 7247 ft | 277 kts | 94° |
| 2026-05-06 20:53 | 35.96603 | -84.10767 | 7149 ft | 265 kts | 95° |
| 2026-05-06 20:53 | 35.96519 | -84.08544 | 7027 ft | 253 kts | 95° |
| 2026-05-06 20:54 | 35.96735 | -84.06432 | 6729 ft | 249 kts | 62° |
| 2026-05-06 20:54 | 35.97734 | -84.04749 | 6461 ft | 241 kts | 44° |
| 2026-05-06 20:54 | 35.98837 | -84.03194 | 6137 ft | 241 kts | 44° |
| 2026-05-06 20:54 | 35.99946 | -84.01634 | 5811 ft | 241 kts | 44° |
| 2026-05-06 20:55 | 36.01055 | -84.00091 | 5523 ft | 237 kts | 44° |
| 2026-05-06 20:55 | 36.02131 | -83.98596 | 5401 ft | 231 kts | 44° |
| 2026-05-06 20:55 | 36.03197 | -83.97121 | 5310 ft | 230 kts | 44° |
| 2026-05-06 20:55 | 36.04271 | -83.95636 | 5250 ft | 233 kts | 49° |
| 2026-05-06 20:56 | 36.04863 | -83.93781 | 5173 ft | 237 kts | 93° |
| 2026-05-06 20:56 | 36.04402 | -83.91895 | 5068 ft | 229 kts | 135° |
| 2026-05-06 20:56 | 36.03258 | -83.90635 | 4988 ft | 215 kts | 149° |
| 2026-05-06 20:56 | 36.02107 | -83.89527 | 4875 ft | 202 kts | 150° |
| 2026-05-06 20:57 | 36.01000 | -83.88561 | 4748 ft | 189 kts | 155° |
| 2026-05-06 20:57 | 35.99938 | -83.87697 | 4684 ft | 179 kts | 156° |
| 2026-05-06 20:57 | 35.98933 | -83.86866 | 4579 ft | 170 kts | 156° |
| 2026-05-06 20:57 | 35.97961 | -83.86056 | 4529 ft | 164 kts | 159° |
| 2026-05-06 20:58 | 35.96954 | -83.85794 | 4430 ft | 141 kts | 193° |
| 2026-05-06 20:58 | 35.95960 | -83.85931 | 4263 ft | 144 kts | 195° |
| 2026-05-06 20:58 | 35.94968 | -83.86087 | 4082 ft | 142 kts | 196° |
| 2026-05-06 20:58 | 35.94004 | -83.86236 | 3921 ft | 140 kts | 196° |
| 2026-05-06 20:59 | 35.93028 | -83.86392 | 3791 ft | 142 kts | 194° |
| 2026-05-06 20:59 | 35.92174 | -83.86831 | 3642 ft | 130 kts | 221° |
| 2026-05-06 20:59 | 35.91429 | -83.87523 | 3480 ft | 134 kts | 220° |
| 2026-05-06 20:59 | 35.90702 | -83.88219 | 3297 ft | 131 kts | 221° |
| 2026-05-06 21:00 | 35.90006 | -83.88921 | 3138 ft | 129 kts | 224° |
| 2026-05-06 21:00 | 35.89350 | -83.89661 | 3005 ft | 127 kts | 226° |
| 2026-05-06 21:00 | 35.88707 | -83.90430 | 2801 ft | 130 kts | 226° |
| 2026-05-06 21:00 | 35.88062 | -83.91214 | 2625 ft | 130 kts | 226° |
| 2026-05-06 21:01 | 35.87419 | -83.91999 | 2436 ft | 131 kts | 226° |
| 2026-05-06 21:01 | 35.86777 | -83.92784 | 2278 ft | 129 kts | 226° |
| 2026-05-06 21:01 | 35.86125 | -83.93585 | 2100 ft | 135 kts | 226° |
| 2026-05-06 21:01 | 35.85442 | -83.94419 | 1926 ft | 141 kts | 226° |
| 2026-05-06 21:02 | 35.84735 | -83.95287 | 1705 ft | 145 kts | 226° |
| 2026-05-06 21:02 | 35.84026 | -83.96153 | 1521 ft | 143 kts | 223° |
| 2026-05-06 21:02 | 35.83331 | -83.97006 | 1362 ft | 139 kts | 223° |
| 2026-05-06 21:02 | 35.82627 | -83.97866 | 1168 ft | 143 kts | 223° |
| 2026-05-06 21:03 | 35.81909 | -83.98747 | 995 ft | 148 kts | 222° |
| 2026-05-06 21:03 | 35.81227 | -83.99581 | 960 ft | 121 kts | 226° |
| 2026-05-06 21:03 | 35.80737 | -84.00179 | 953 ft | 77 kts | 227° |
| 2026-05-06 21:03 | 35.80512 | -84.00453 | 950 ft | 19 kts | 217° |
| 2026-05-06 21:04 | 35.80403 | -84.00484 | 950 ft | 16 kts | 134° |
| 2026-05-06 21:04 | 35.80406 | -84.00371 | 949 ft | 15 kts | 48° |
| 2026-05-06 21:04 | 35.80479 | -84.00282 | 952 ft | 14 kts | 44° |
| 2026-05-06 21:04 | 35.80566 | -84.00175 | 953 ft | 22 kts | 45° |
| 2026-05-06 21:05 | 35.80683 | -84.00029 | 955 ft | 24 kts | 45° |
| 2026-05-06 21:05 | 35.80796 | -83.99889 | 955 ft | 23 kts | 45° |
| 2026-05-06 21:05 | 35.80826 | -83.99768 | 956 ft | 14 kts | 131° |
| 2026-05-06 21:05 | 35.80765 | -83.99679 | 955 ft | 13 kts | 129° |
| 2026-05-06 21:06 | 35.80715 | -83.99583 | 954 ft | 14 kts | 101° |
| 2026-05-06 21:06 | 35.80760 | -83.99489 | 956 ft | 13 kts | 41° |
| 2026-05-06 21:06 | 35.80837 | -83.99396 | 957 ft | 19 kts | 45° |
| 2026-05-06 21:06 | 35.80900 | -83.99318 | 958 ft | 19 kts | 45° |
| 2026-05-06 21:07 | 35.80992 | -83.99204 | 960 ft | 19 kts | 45° |
| 2026-05-06 21:07 | 35.81068 | -83.99084 | 962 ft | 18 kts | 89° |
| 2026-05-06 21:07 | 35.80965 | -83.99037 | 960 ft | 17 kts | 178° |
| 2026-05-06 21:07 | 35.80828 | -83.99105 | 959 ft | 14 kts | 187° |
| 2026-05-06 21:08 | 35.80771 | -83.99087 | 958 ft | 7 kts | 163° |
| 2026-05-06 21:08 | 35.80763 | -83.99084 | 959 ft | 0 kts | 162° |